createdAt,value
2017-10-25T00:00:17.836Z,21.90
2017-10-25T00:02:43.858Z,21.80
2017-10-25T00:05:09.843Z,22.40
2017-10-25T00:07:39.421Z,22.93
2017-10-25T00:10:05.466Z,25.63
2017-10-25T00:12:31.407Z,24.97
2017-10-25T00:14:57.444Z,23.37
2017-10-25T00:17:23.391Z,20.07
2017-10-25T00:19:50.215Z,27.43
2017-10-25T00:22:16.157Z,23.77
2017-10-25T00:24:42.899Z,24.10
2017-10-25T00:27:08.851Z,24.43
2017-10-25T00:29:34.809Z,24.10
2017-10-25T00:32:00.767Z,23.33
2017-10-25T00:34:27.441Z,27.50
2017-10-25T00:36:53.362Z,24.60
2017-10-25T00:39:19.293Z,26.13
2017-10-25T00:41:45.258Z,21.73
2017-10-25T00:44:11.219Z,22.77
2017-10-25T00:46:37.163Z,24.87
2017-10-25T00:49:03.160Z,24.20
2017-10-25T00:51:29.104Z,22.30
2017-10-25T00:53:55.063Z,21.50
2017-10-25T00:56:21.770Z,24.20
2017-10-25T00:58:47.770Z,25.77
2017-10-25T01:01:13.737Z,21.57
2017-10-25T01:03:39.679Z,22.90
2017-10-25T01:06:05.653Z,22.70
2017-10-25T01:08:31.580Z,21.90
2017-10-25T01:10:57.511Z,22.20
2017-10-25T01:13:23.525Z,27.10
2017-10-25T01:15:49.459Z,26.27
2017-10-25T01:18:15.505Z,24.17
2017-10-25T01:20:41.439Z,21.40
2017-10-25T01:23:07.355Z,24.50
2017-10-25T01:25:33.328Z,23.03
2017-10-25T01:27:59.322Z,21.00
2017-10-25T01:30:25.274Z,23.33
2017-10-25T01:32:51.244Z,21.40
2017-10-25T01:35:17.245Z,19.20
2017-10-25T01:37:43.188Z,20.20
2017-10-25T01:40:09.142Z,19.27
2017-10-25T01:42:35.148Z,16.03
2017-10-25T01:45:01.115Z,18.80
2017-10-25T01:47:27.096Z,18.77
2017-10-25T01:49:53.058Z,21.30
2017-10-25T01:52:19.003Z,18.90
2017-10-25T01:54:44.923Z,20.53
2017-10-25T01:57:10.863Z,21.83
2017-10-25T01:59:36.860Z,17.37
2017-10-25T02:02:03.591Z,20.50
2017-10-25T02:04:29.631Z,19.10
2017-10-25T02:06:55.551Z,19.73
2017-10-25T02:09:21.540Z,15.57
2017-10-25T02:11:47.463Z,18.47
2017-10-25T02:14:13.407Z,16.63
2017-10-25T02:16:40.111Z,15.73
2017-10-25T02:19:06.115Z,16.73
2017-10-25T02:21:32.108Z,17.17
2017-10-25T02:23:58.033Z,16.23
2017-10-25T02:26:24.002Z,17.40
2017-10-25T02:28:49.948Z,15.50
2017-10-25T02:31:17.108Z,16.80
2017-10-25T02:33:43.040Z,15.60
2017-10-25T02:36:09.021Z,16.00
2017-10-25T02:38:34.970Z,14.33
2017-10-25T02:41:01.004Z,16.83
2017-10-25T02:43:26.995Z,14.93
2017-10-25T02:45:53.786Z,19.47
2017-10-25T02:48:19.841Z,16.93
2017-10-25T02:50:45.791Z,15.47
2017-10-25T02:53:12.602Z,19.13
2017-10-25T02:55:38.571Z,15.67
2017-10-25T02:58:04.566Z,14.63
2017-10-25T03:00:30.556Z,18.93
2017-10-25T03:02:56.709Z,16.23
2017-10-25T03:05:22.687Z,15.10
2017-10-25T03:07:48.636Z,15.97
2017-10-25T03:10:14.574Z,15.90
2017-10-25T03:12:41.242Z,17.50
2017-10-25T03:15:07.199Z,13.60
2017-10-25T03:17:33.143Z,17.10
2017-10-25T03:19:59.100Z,15.20
2017-10-25T03:22:25.114Z,13.83
2017-10-25T03:24:51.177Z,17.67
2017-10-25T03:27:17.289Z,17.33
2017-10-25T03:29:43.331Z,18.13
2017-10-25T03:32:09.381Z,16.20
2017-10-25T03:34:35.315Z,16.90
2017-10-25T03:37:02.064Z,15.17
2017-10-25T03:39:28.751Z,16.97
2017-10-25T03:41:54.748Z,16.20
2017-10-25T03:44:20.739Z,16.13
2017-10-25T03:46:47.390Z,16.70
2017-10-25T03:49:13.333Z,18.03
2017-10-25T03:51:39.234Z,17.70
2017-10-25T03:54:05.215Z,19.10
2017-10-25T03:56:31.164Z,19.93
2017-10-25T03:58:57.199Z,18.40
2017-10-25T04:01:23.223Z,17.10
2017-10-25T04:03:49.163Z,19.57
2017-10-25T04:06:15.180Z,17.87
2017-10-25T04:08:41.153Z,20.23
2017-10-25T04:11:07.092Z,17.80
2017-10-25T04:13:33.071Z,21.63
2017-10-25T04:15:59.111Z,20.13
2017-10-25T04:18:25.051Z,17.13
2017-10-25T04:20:51.004Z,20.33
2017-10-25T04:23:17.014Z,19.50
2017-10-25T04:25:42.925Z,20.10
2017-10-25T04:28:09.676Z,23.43
2017-10-25T04:30:35.730Z,19.23
2017-10-25T04:33:01.856Z,18.90
2017-10-25T04:35:27.790Z,23.63
2017-10-25T04:37:53.746Z,16.73
2017-10-25T04:40:19.687Z,20.60
2017-10-25T04:42:45.664Z,21.63
2017-10-25T04:45:11.644Z,16.00
2017-10-25T04:47:37.691Z,22.43
2017-10-25T04:50:03.668Z,17.73
2017-10-25T04:52:30.345Z,17.17
2017-10-25T04:54:56.266Z,22.93
2017-10-25T04:57:22.199Z,18.30
2017-10-25T04:59:48.167Z,16.43
2017-10-25T05:02:14.219Z,22.90
2017-10-25T05:04:40.291Z,16.83
2017-10-25T05:07:06.253Z,17.57
2017-10-25T05:09:32.204Z,16.73
2017-10-25T05:11:58.999Z,20.03
2017-10-25T05:14:24.993Z,19.30
2017-10-25T05:16:51.034Z,18.33
2017-10-25T05:19:17.061Z,16.87
2017-10-25T05:21:43.089Z,19.10
2017-10-25T05:24:09.837Z,17.87
2017-10-25T05:26:35.928Z,20.87
2017-10-25T05:29:01.903Z,24.03
2017-10-25T05:31:27.899Z,17.30
2017-10-25T05:33:53.851Z,20.17
2017-10-25T05:36:19.771Z,20.10
2017-10-25T05:38:45.719Z,18.40
2017-10-25T05:41:11.692Z,18.90
2017-10-25T05:43:37.659Z,23.43
2017-10-25T05:46:03.668Z,18.93
2017-10-25T05:48:29.629Z,20.17
2017-10-25T05:50:56.379Z,19.80
2017-10-25T05:53:22.347Z,19.60
2017-10-25T05:55:48.376Z,21.23
2017-10-25T05:58:14.460Z,21.17
2017-10-25T06:00:40.423Z,20.90
2017-10-25T06:03:06.404Z,20.77
2017-10-25T06:05:32.358Z,19.40
2017-10-25T06:07:59.239Z,20.43
2017-10-25T06:10:27.297Z,22.97
2017-10-25T06:12:53.252Z,22.37
2017-10-25T06:15:19.502Z,20.53
2017-10-25T06:17:45.736Z,20.17
2017-10-25T06:20:11.747Z,18.70
2017-10-25T06:22:38.032Z,21.73
2017-10-25T06:25:04.200Z,18.67
2017-10-25T06:27:30.850Z,18.47
2017-10-25T06:29:56.963Z,19.00
2017-10-25T06:32:23.351Z,18.60
2017-10-25T06:34:49.435Z,18.90
2017-10-25T06:37:15.413Z,18.67
2017-10-25T06:39:41.516Z,20.33
2017-10-25T06:42:07.538Z,18.60
2017-10-25T06:44:33.523Z,17.47
2017-10-25T06:46:59.502Z,16.73
2017-10-25T06:49:26.459Z,18.57
2017-10-25T06:51:52.484Z,16.23
2017-10-25T06:54:18.423Z,18.27
2017-10-25T06:56:44.444Z,21.83
2017-10-25T06:59:10.395Z,17.63
2017-10-25T07:01:36.324Z,19.37
2017-10-25T07:04:02.261Z,17.53
2017-10-25T07:06:28.243Z,17.30
2017-10-25T07:08:54.269Z,15.67
2017-10-25T07:11:20.208Z,18.50
2017-10-25T07:13:46.199Z,17.23
2017-10-25T07:16:12.281Z,15.40
2017-10-25T07:18:38.253Z,15.33
2017-10-25T07:21:04.548Z,15.73
2017-10-25T07:23:30.558Z,16.63
2017-10-25T07:25:57.562Z,14.60
2017-10-25T07:28:23.545Z,16.07
2017-10-25T07:30:49.476Z,16.87
2017-10-25T07:33:15.984Z,17.53
2017-10-25T07:35:42.702Z,13.40
2017-10-25T07:38:08.905Z,15.83
2017-10-25T07:40:34.900Z,15.93
2017-10-25T07:43:01.608Z,15.80
2017-10-25T07:45:28.179Z,18.07
2017-10-25T07:47:54.527Z,15.33
2017-10-25T07:50:20.563Z,14.97
2017-10-25T07:52:46.999Z,15.33
2017-10-25T07:55:12.983Z,15.93
2017-10-25T07:57:38.943Z,16.07
2017-10-25T08:00:04.969Z,14.93
2017-10-25T08:02:31.340Z,15.40
2017-10-25T08:04:57.294Z,17.03
2017-10-25T08:07:23.247Z,16.60
2017-10-25T08:09:49.210Z,18.13
2017-10-25T08:12:15.146Z,17.03
2017-10-25T08:14:41.120Z,17.40
2017-10-25T08:17:07.936Z,17.33
2017-10-25T08:19:33.963Z,18.33
2017-10-25T08:22:00.145Z,18.27
2017-10-25T08:24:26.118Z,18.93
2017-10-25T08:26:52.090Z,18.97
2017-10-25T08:29:18.048Z,17.93
2017-10-25T08:31:44.006Z,19.70
2017-10-25T08:34:10.697Z,20.50
2017-10-25T08:36:36.752Z,19.43
2017-10-25T08:39:04.028Z,23.20
2017-10-25T08:41:30.018Z,22.23
2017-10-25T08:43:56.029Z,21.27
2017-10-25T08:46:22.082Z,21.60
2017-10-25T08:48:48.115Z,23.60
2017-10-25T08:51:14.032Z,21.53
2017-10-25T08:53:40.140Z,22.17
2017-10-25T08:56:06.155Z,23.10
2017-10-25T08:58:32.287Z,22.50
2017-10-25T09:00:58.240Z,21.60
2017-10-25T09:03:24.232Z,23.77
2017-10-25T09:05:51.012Z,24.70
2017-10-25T09:08:17.025Z,20.77
2017-10-25T09:10:43.135Z,19.10
2017-10-25T09:13:09.820Z,19.90
2017-10-25T09:15:35.788Z,25.20
2017-10-25T09:18:01.823Z,19.53
2017-10-25T09:20:27.815Z,21.13
2017-10-25T09:22:53.753Z,19.80
2017-10-25T09:25:21.334Z,18.70
2017-10-25T09:27:47.283Z,19.43
2017-10-25T09:30:13.269Z,19.53
2017-10-25T09:32:39.230Z,18.50
2017-10-25T09:35:05.193Z,16.90
2017-10-25T09:37:31.194Z,18.03
2017-10-25T09:39:57.164Z,18.10
2017-10-25T09:42:23.192Z,18.80
2017-10-25T09:44:49.281Z,16.53
2017-10-25T09:47:15.297Z,17.40
2017-10-25T09:49:42.262Z,17.17
2017-10-25T09:52:08.310Z,16.40
2017-10-25T09:54:34.268Z,16.70
2017-10-25T09:57:00.285Z,16.60
2017-10-25T09:59:26.274Z,15.57
2017-10-25T10:01:52.284Z,14.50
2017-10-25T10:04:18.395Z,12.80
2017-10-25T10:06:44.974Z,13.00
2017-10-25T10:09:10.968Z,12.50
2017-10-25T10:11:36.997Z,11.40
2017-10-25T10:14:03.843Z,13.97
2017-10-25T10:16:30.778Z,10.40
2017-10-25T10:18:56.868Z,9.83
2017-10-25T10:21:23.715Z,9.30
2017-10-25T10:23:49.748Z,9.03
2017-10-25T10:26:16.116Z,9.40
2017-10-25T10:28:42.466Z,9.27
2017-10-25T10:31:08.426Z,8.70
2017-10-25T10:33:34.381Z,10.17
2017-10-25T10:36:00.798Z,8.43
2017-10-25T10:38:27.003Z,9.50
2017-10-25T10:40:53.810Z,9.23
2017-10-25T10:43:20.601Z,9.17
2017-10-25T10:45:46.560Z,10.00
2017-10-25T10:48:12.602Z,8.80
2017-10-25T10:50:38.558Z,9.10
2017-10-25T10:53:05.389Z,8.40
2017-10-25T10:55:32.087Z,8.27
2017-10-25T10:57:58.036Z,9.20
2017-10-25T11:00:24.547Z,8.20
2017-10-25T11:02:51.550Z,8.30
2017-10-25T11:05:17.561Z,8.03
2017-10-25T11:07:43.543Z,8.70
2017-10-25T11:10:09.731Z,7.40
2017-10-25T11:12:35.709Z,6.67
2017-10-25T11:15:01.785Z,6.67
2017-10-25T11:17:27.792Z,6.57
2017-10-25T11:19:53.834Z,7.60
2017-10-25T11:22:20.742Z,5.73
2017-10-25T11:24:47.439Z,5.80
2017-10-25T11:27:13.418Z,5.70
2017-10-25T11:29:39.340Z,8.50
2017-10-25T11:32:06.248Z,5.67
2017-10-25T11:34:32.303Z,5.63
2017-10-25T11:36:59.108Z,4.93
2017-10-25T11:39:25.149Z,5.20
2017-10-25T11:41:53.602Z,5.40
2017-10-25T11:44:20.336Z,4.73
2017-10-25T11:46:46.279Z,5.27
2017-10-25T11:49:12.404Z,5.37
2017-10-25T11:51:38.327Z,5.20
2017-10-25T11:54:04.333Z,5.80
2017-10-25T11:56:30.305Z,4.70
2017-10-25T11:58:56.269Z,5.73
2017-10-25T12:01:22.318Z,6.00
2017-10-25T12:03:49.001Z,5.93
2017-10-25T12:06:14.980Z,5.63
2017-10-25T12:08:41.674Z,5.50
2017-10-25T12:11:07.623Z,6.00
2017-10-25T12:13:33.566Z,6.23
2017-10-25T12:15:59.576Z,6.30
2017-10-25T12:18:25.558Z,6.20
2017-10-25T12:20:51.568Z,5.43
2017-10-25T12:23:18.454Z,6.13
2017-10-25T12:25:46.190Z,6.43
2017-10-25T12:28:12.149Z,6.60
2017-10-25T12:30:38.071Z,6.17
2017-10-25T12:33:04.821Z,6.30
2017-10-25T12:35:30.790Z,7.77
2017-10-25T12:37:56.752Z,7.57
2017-10-25T12:40:22.897Z,6.80
2017-10-25T12:42:49.016Z,6.90
2017-10-25T12:45:15.110Z,7.30
2017-10-25T12:47:41.075Z,7.20
2017-10-25T12:50:07.154Z,6.70
2017-10-25T12:52:33.679Z,5.80
2017-10-25T12:54:59.658Z,6.40
2017-10-25T12:57:26.285Z,6.67
2017-10-25T12:59:52.244Z,5.97
2017-10-25T13:02:18.320Z,8.33
2017-10-25T13:04:46.397Z,6.83
2017-10-25T13:07:12.336Z,6.63
2017-10-25T13:09:38.364Z,5.57
2017-10-25T13:12:06.653Z,6.10
2017-10-25T13:14:38.983Z,6.03
2017-10-25T13:17:06.530Z,10.50
2017-10-25T13:19:32.524Z,6.20
2017-10-25T13:21:58.475Z,8.97
2017-10-25T13:24:26.211Z,5.67
2017-10-25T13:26:54.238Z,6.27
2017-10-25T13:29:20.738Z,5.00
2017-10-25T13:31:47.414Z,6.20
2017-10-25T13:34:13.445Z,4.70
2017-10-25T13:36:41.288Z,4.87
2017-10-25T13:39:07.320Z,4.60
2017-10-25T13:41:33.300Z,4.87
2017-10-25T13:43:59.308Z,6.53
2017-10-25T13:46:28.889Z,8.03
2017-10-25T13:48:55.358Z,4.40
2017-10-25T13:51:21.387Z,8.90
2017-10-25T13:53:49.270Z,3.87
2017-10-25T13:56:18.242Z,4.83
2017-10-25T13:58:47.390Z,3.73
2017-10-25T14:01:13.556Z,3.87
2017-10-25T14:03:41.488Z,3.27
2017-10-25T14:06:08.248Z,7.80
2017-10-25T14:08:35.061Z,3.47
2017-10-25T14:11:01.087Z,4.73
2017-10-25T14:13:27.740Z,3.60
2017-10-25T14:15:55.604Z,4.30
2017-10-25T14:18:22.289Z,3.50
2017-10-25T14:20:49.643Z,3.87
2017-10-25T14:23:16.220Z,3.50
2017-10-25T14:25:42.922Z,4.90
2017-10-25T14:28:21.683Z,3.70
2017-10-25T14:30:48.215Z,4.07
2017-10-25T14:33:14.217Z,4.00
2017-10-25T14:35:41.050Z,5.33
2017-10-25T14:38:10.671Z,4.33
2017-10-25T14:40:37.657Z,4.00
2017-10-25T14:43:03.643Z,4.03
2017-10-25T14:45:31.593Z,4.20
2017-10-25T14:47:58.617Z,4.20
2017-10-25T14:50:25.495Z,4.00
2017-10-25T14:52:52.164Z,4.80
2017-10-25T14:55:18.153Z,9.20
2017-10-25T14:57:47.655Z,4.37
2017-10-25T15:00:15.886Z,4.20
2017-10-25T15:02:42.888Z,4.80
2017-10-25T15:05:09.645Z,4.40
2017-10-25T15:07:37.907Z,4.23
2017-10-25T15:10:03.970Z,4.53
2017-10-25T15:12:29.990Z,4.07
2017-10-25T15:14:59.495Z,4.70
2017-10-25T15:17:25.727Z,4.40
2017-10-25T15:19:54.048Z,4.60
2017-10-25T15:22:20.536Z,5.33
2017-10-25T15:24:48.956Z,5.07
2017-10-25T15:27:15.397Z,5.50
2017-10-25T15:32:15.299Z,4.83
2017-10-25T15:34:44.069Z,4.80
2017-10-25T15:37:10.084Z,5.63
2017-10-25T15:39:36.099Z,5.30
2017-10-25T15:42:02.451Z,4.60
2017-10-25T15:44:28.486Z,5.10
2017-10-25T15:46:55.197Z,6.63
2017-10-25T15:49:21.461Z,6.00
2017-10-25T15:51:47.456Z,5.20
2017-10-25T15:54:14.191Z,5.90
2017-10-25T15:56:41.039Z,5.90
2017-10-25T15:59:07.019Z,5.37
2017-10-25T16:01:33.604Z,5.70
2017-10-25T16:04:00.321Z,5.70
2017-10-25T16:06:26.375Z,5.93
2017-10-25T16:08:53.200Z,8.57
2017-10-25T16:11:19.926Z,6.20
2017-10-25T16:13:46.257Z,10.43
2017-10-25T16:16:12.331Z,6.37
2017-10-25T16:18:39.271Z,6.77
2017-10-25T16:21:05.467Z,6.57
2017-10-25T16:23:31.987Z,7.40
2017-10-25T16:25:57.984Z,6.90
2017-10-25T16:28:23.952Z,6.40
2017-10-25T16:30:50.693Z,9.37
2017-10-25T16:33:16.717Z,6.60
2017-10-25T16:35:42.830Z,10.57
2017-10-25T16:38:09.987Z,6.47
2017-10-25T16:40:36.777Z,8.53
2017-10-25T16:43:02.756Z,6.73
2017-10-25T16:45:29.520Z,7.47
2017-10-25T16:47:56.307Z,7.60
2017-10-25T16:50:24.008Z,8.27
2017-10-25T16:52:53.370Z,7.40
2017-10-25T16:55:19.411Z,8.23
2017-10-25T16:57:45.463Z,7.57
2017-10-25T17:00:11.583Z,9.30
2017-10-25T17:02:37.722Z,10.40
2017-10-25T17:05:03.728Z,9.00
2017-10-25T17:07:29.728Z,11.60
2017-10-25T17:09:55.724Z,9.00
2017-10-25T17:12:21.704Z,8.30
2017-10-25T17:14:47.726Z,9.50
2017-10-25T17:17:13.723Z,8.87
2017-10-25T17:19:39.718Z,9.10
2017-10-25T17:22:05.817Z,9.80
2017-10-25T17:24:32.255Z,8.57
2017-10-25T17:26:58.269Z,8.97
2017-10-25T17:29:24.332Z,8.40
2017-10-25T17:31:51.341Z,8.43
2017-10-25T17:34:17.388Z,8.40
2017-10-25T17:36:43.378Z,8.50
2017-10-25T17:39:09.484Z,9.23
2017-10-25T17:41:36.536Z,9.77
2017-10-25T17:44:02.753Z,13.07
2017-10-25T17:46:28.895Z,8.60
2017-10-25T17:48:55.097Z,10.47
2017-10-25T17:51:21.900Z,9.77
2017-10-25T17:53:47.895Z,10.10
2017-10-25T17:56:13.948Z,9.40
2017-10-25T17:58:41.252Z,9.10
2017-10-25T18:01:07.971Z,10.10
2017-10-25T18:03:37.112Z,9.33
2017-10-25T18:06:03.407Z,10.60
2017-10-25T18:08:31.720Z,14.20
2017-10-25T18:11:00.046Z,9.93
2017-10-25T18:13:26.434Z,9.93
2017-10-25T18:15:52.703Z,10.73
2017-10-25T18:18:20.415Z,9.50
2017-10-25T18:20:46.445Z,10.97
2017-10-25T18:23:12.829Z,10.00
2017-10-25T18:25:42.166Z,11.63
2017-10-25T18:28:11.773Z,10.73
2017-10-25T18:30:37.721Z,9.77
2017-10-25T18:33:04.127Z,9.60
2017-10-25T18:35:30.904Z,9.77
2017-10-25T18:40:27.863Z,8.70
2017-10-25T18:42:54.372Z,10.47
2017-10-25T18:45:20.325Z,12.53
2017-10-25T18:47:48.556Z,9.47
2017-10-25T18:50:14.616Z,9.13
2017-10-25T18:52:42.751Z,9.63
2017-10-25T18:55:08.719Z,9.90
2017-10-25T18:57:34.936Z,14.73
2017-10-25T19:00:02.322Z,9.60
2017-10-25T19:02:28.308Z,10.30
2017-10-25T19:04:54.354Z,10.60
2017-10-25T19:07:20.672Z,9.47
2017-10-25T19:09:46.836Z,9.20
2017-10-25T19:12:13.070Z,11.47
2017-10-25T19:14:39.094Z,8.90
2017-10-25T19:17:05.113Z,9.00
2017-10-25T19:19:31.328Z,9.43
2017-10-25T19:21:57.644Z,8.87
2017-10-25T19:24:23.674Z,9.40
2017-10-25T19:26:50.032Z,10.33
2017-10-25T19:29:17.152Z,9.73
2017-10-25T19:31:43.367Z,9.17
2017-10-25T19:34:09.718Z,10.80
2017-10-25T19:36:36.165Z,10.30
2017-10-25T19:41:33.068Z,9.77
2017-10-25T19:44:00.196Z,10.13
2017-10-25T19:46:26.786Z,9.70
2017-10-25T19:48:54.321Z,10.60
2017-10-25T19:51:21.119Z,11.53
2017-10-25T19:53:47.744Z,10.70
2017-10-25T19:56:15.166Z,10.60
2017-10-25T19:58:41.431Z,10.00
2017-10-25T20:01:08.227Z,9.50
2017-10-25T20:03:35.762Z,11.10
2017-10-25T20:06:01.894Z,9.97
2017-10-25T20:08:29.836Z,10.80
2017-10-25T20:10:59.341Z,10.43
2017-10-25T20:13:27.307Z,12.20
2017-10-25T20:15:53.437Z,10.50
2017-10-25T20:18:19.497Z,11.50
2017-10-25T20:20:48.195Z,13.70
2017-10-25T20:23:14.162Z,12.47
2017-10-25T20:25:40.358Z,9.47
2017-10-25T20:28:06.381Z,10.03
2017-10-25T20:30:32.650Z,9.27
2017-10-25T20:35:29.525Z,9.20
2017-10-25T20:37:55.474Z,9.10
2017-10-25T20:40:21.409Z,9.67
2017-10-25T20:42:47.385Z,11.60
2017-10-25T20:45:13.350Z,10.37
2017-10-25T20:47:39.280Z,9.63
2017-10-25T20:50:05.255Z,10.20
2017-10-25T20:52:31.220Z,9.67
2017-10-25T20:54:57.206Z,10.07
2017-10-25T20:57:23.205Z,9.47
2017-10-25T20:59:49.180Z,11.70
2017-10-25T21:02:15.215Z,8.90
2017-10-25T21:04:41.193Z,10.70
2017-10-25T21:07:07.148Z,9.10
2017-10-25T21:09:33.781Z,10.10
2017-10-25T21:11:59.985Z,10.27
2017-10-25T21:14:26.042Z,9.17
2017-10-25T21:16:52.439Z,9.60
2017-10-25T21:19:19.215Z,10.07
2017-10-25T21:21:46.085Z,9.40
2017-10-25T21:24:12.052Z,9.83
2017-10-25T21:26:38.072Z,19.40
2017-10-25T21:29:04.051Z,9.30
2017-10-25T21:31:30.167Z,11.90
2017-10-25T21:33:56.131Z,10.17
2017-10-25T21:36:22.880Z,10.07
2017-10-25T21:38:48.912Z,9.90
2017-10-25T21:41:14.909Z,10.10
2017-10-25T21:43:40.923Z,9.97
2017-10-25T21:46:06.868Z,9.17
2017-10-25T21:48:33.604Z,9.87
2017-10-25T21:51:00.303Z,9.80
2017-10-25T21:53:26.265Z,8.73
2017-10-25T21:55:52.220Z,10.40
2017-10-25T21:58:18.903Z,8.57
2017-10-25T22:00:44.976Z,8.50
2017-10-25T22:03:10.938Z,9.83
2017-10-25T22:05:37.083Z,9.67
2017-10-25T22:08:03.811Z,9.63
2017-10-25T22:10:29.822Z,9.00
2017-10-25T22:12:55.877Z,9.83
2017-10-25T22:15:22.693Z,8.13
2017-10-25T22:17:48.624Z,9.23
2017-10-25T22:20:14.636Z,10.07
2017-10-25T22:22:40.975Z,9.23
2017-10-25T22:25:07.011Z,10.10
2017-10-25T22:27:33.136Z,8.03
2017-10-25T22:29:59.086Z,9.10
2017-10-25T22:32:25.071Z,9.67
2017-10-25T22:34:51.215Z,8.60
2017-10-25T22:37:17.325Z,9.33
2017-10-25T22:39:43.340Z,9.67
2017-10-25T22:42:10.039Z,9.90
2017-10-25T22:44:35.995Z,10.83
2017-10-25T22:47:02.036Z,9.53
2017-10-25T22:49:29.501Z,10.10
2017-10-25T22:51:55.508Z,11.30
2017-10-25T22:54:21.626Z,9.57
2017-10-25T22:56:47.648Z,11.13
2017-10-25T22:59:13.610Z,12.93
2017-10-25T23:01:39.648Z,13.40
2017-10-25T23:04:05.667Z,10.73
2017-10-25T23:06:31.627Z,10.63
2017-10-25T23:08:57.603Z,9.43
2017-10-25T23:11:23.591Z,9.33
2017-10-25T23:13:49.558Z,11.10
2017-10-25T23:16:16.308Z,11.33
2017-10-25T23:18:42.279Z,9.60
2017-10-25T23:21:08.217Z,9.70
2017-10-25T23:23:34.207Z,8.97
2017-10-25T23:26:00.147Z,10.93
2017-10-25T23:28:26.915Z,9.40
2017-10-25T23:30:52.911Z,10.40
2017-10-25T23:33:19.642Z,10.73
2017-10-25T23:35:46.335Z,8.70
2017-10-25T23:38:12.322Z,10.40
2017-10-25T23:40:38.332Z,10.80
2017-10-25T23:43:04.310Z,10.30
2017-10-25T23:45:30.290Z,10.77
2017-10-25T23:47:56.275Z,10.63
2017-10-25T23:50:24.433Z,10.13
2017-10-25T23:52:50.532Z,9.97
2017-10-25T23:55:16.542Z,11.27
2017-10-25T23:57:42.715Z,10.10
